createdAt,value
2022-08-27T00:00:45.903Z,8.70
2022-08-27T00:03:12.926Z,8.77
2022-08-27T00:05:40.426Z,8.70
2022-08-27T00:08:09.595Z,9.70
2022-08-27T00:10:36.386Z,9.07
2022-08-27T00:15:29.690Z,8.55
2022-08-27T00:17:57.013Z,8.38
2022-08-27T00:20:25.999Z,9.07
2022-08-27T00:22:53.625Z,8.65
2022-08-27T00:25:21.203Z,9.00
2022-08-27T00:27:47.822Z,9.52
2022-08-27T00:32:43.172Z,9.93
2022-08-27T00:35:10.319Z,10.70
2022-08-27T00:37:37.336Z,10.32
2022-08-27T00:40:07.746Z,10.20
2022-08-27T00:42:34.394Z,9.27
2022-08-27T00:47:31.640Z,7.97
2022-08-27T00:50:10.199Z,9.13
2022-08-27T00:52:45.440Z,8.95
2022-08-27T00:55:18.103Z,10.23
2022-08-27T00:57:49.365Z,10.57
2022-08-27T01:00:18.247Z,8.95
2022-08-27T01:02:46.643Z,8.45
2022-08-27T01:05:20.668Z,8.80
2022-08-27T01:07:51.674Z,8.68
2022-08-27T01:10:21.579Z,9.13
2022-08-27T01:12:53.788Z,9.38
2022-08-27T01:15:22.811Z,8.43
2022-08-27T01:17:50.058Z,8.85
2022-08-27T01:20:21.336Z,8.95
2022-08-27T01:23:09.783Z,8.77
2022-08-27T01:25:37.654Z,8.70
2022-08-27T01:28:05.114Z,8.60
2022-08-27T01:30:32.121Z,8.25
2022-08-27T01:32:58.828Z,8.38
2022-08-27T01:37:56.948Z,8.00
2022-08-27T01:40:24.193Z,7.32
2022-08-27T01:42:54.940Z,7.65
2022-08-27T01:45:27.970Z,7.65
2022-08-27T01:47:54.781Z,7.22
2022-08-27T01:50:25.962Z,8.40
2022-08-27T01:52:53.345Z,7.38
2022-08-27T01:55:24.941Z,7.90
2022-08-27T01:57:53.877Z,6.88
2022-08-27T02:00:27.208Z,7.78
2022-08-27T02:02:54.134Z,7.15
2022-08-27T02:05:21.533Z,7.30
2022-08-27T02:07:48.142Z,7.93
2022-08-27T02:12:44.089Z,7.05
2022-08-27T02:15:11.635Z,7.32
2022-08-27T02:17:38.586Z,6.63
2022-08-27T02:20:09.075Z,7.78
2022-08-27T02:22:35.789Z,6.47
2022-08-27T02:25:02.592Z,6.88
2022-08-27T02:27:29.336Z,8.10
2022-08-27T02:29:55.872Z,7.38
2022-08-27T02:34:59.483Z,7.45
2022-08-27T02:37:26.672Z,7.40
2022-08-27T02:39:53.782Z,8.10
2022-08-27T02:42:20.443Z,7.45
2022-08-27T02:47:14.438Z,7.22
2022-08-27T02:49:41.101Z,7.35
2022-08-27T02:54:34.448Z,7.03
2022-08-27T02:57:01.037Z,7.95
2022-08-27T03:01:54.436Z,7.93
2022-08-27T03:04:22.734Z,7.50
2022-08-27T03:06:50.020Z,7.13
2022-08-27T03:09:16.587Z,7.90
2022-08-27T03:14:09.652Z,7.88
2022-08-27T03:19:07.229Z,7.07
2022-08-27T03:21:35.481Z,8.52
2022-08-27T03:24:11.225Z,8.15
2022-08-27T03:26:39.469Z,8.70
2022-08-27T03:29:07.629Z,7.82
2022-08-27T03:31:34.799Z,7.95
2022-08-27T03:34:07.551Z,8.07
2022-08-27T03:36:34.089Z,7.55
2022-08-27T03:39:00.646Z,7.68
2022-08-27T03:44:21.661Z,7.22
2022-08-27T03:46:49.643Z,7.35
2022-08-27T03:49:20.413Z,6.63
2022-08-27T03:51:52.730Z,7.13
2022-08-27T03:54:19.547Z,7.40
2022-08-27T03:56:47.004Z,7.32
2022-08-27T03:59:15.413Z,7.65
2022-08-27T04:01:42.523Z,7.53
2022-08-27T04:04:09.218Z,7.53
2022-08-27T04:09:02.859Z,7.35
2022-08-27T04:11:29.624Z,7.88
2022-08-27T04:13:56.601Z,6.97
2022-08-27T04:16:23.262Z,7.70
2022-08-27T04:18:49.859Z,7.43
2022-08-27T04:21:16.506Z,8.25
2022-08-27T04:23:43.247Z,8.13
2022-08-27T04:26:11.828Z,7.78
2022-08-27T04:28:39.142Z,8.18
2022-08-27T04:31:06.477Z,8.20
2022-08-27T04:33:38.504Z,7.72
2022-08-27T04:38:33.883Z,7.60
2022-08-27T04:41:21.417Z,8.63
2022-08-27T04:43:56.984Z,8.15
2022-08-27T04:46:29.081Z,8.43
2022-08-27T04:49:01.532Z,9.20
2022-08-27T04:51:29.110Z,8.73
2022-08-27T04:53:56.744Z,9.15
2022-08-27T04:56:28.484Z,8.07
2022-08-27T04:58:55.452Z,7.97
2022-08-27T05:01:24.787Z,7.82
2022-08-27T05:03:52.217Z,8.43
2022-08-27T05:06:19.958Z,7.93
2022-08-27T05:08:48.974Z,6.47
2022-08-27T05:11:18.009Z,6.63
2022-08-27T05:13:46.186Z,6.80
2022-08-27T05:16:16.637Z,7.20
2022-08-27T05:18:48.246Z,5.90
2022-08-27T05:21:26.292Z,7.22
2022-08-27T05:23:54.767Z,6.82
2022-08-27T05:26:23.007Z,6.63
2022-08-27T05:28:49.807Z,6.40
2022-08-27T05:31:17.604Z,6.82
2022-08-27T05:33:44.507Z,7.63
2022-08-27T05:36:29.355Z,7.30
2022-08-27T05:38:57.844Z,7.82
2022-08-27T05:41:33.765Z,6.53
2022-08-27T05:44:18.552Z,8.43
2022-08-27T05:46:51.096Z,6.95
2022-08-27T05:49:18.440Z,8.13
2022-08-27T05:51:45.044Z,8.02
2022-08-27T05:56:43.487Z,7.60
2022-08-27T06:01:56.319Z,7.68
2022-08-27T06:04:24.193Z,7.35
2022-08-27T06:06:51.837Z,6.72
2022-08-27T06:09:21.176Z,7.25
2022-08-27T06:11:48.179Z,7.57
2022-08-27T06:14:15.192Z,7.32
2022-08-27T06:16:41.890Z,7.13
2022-08-27T06:19:12.228Z,6.47
2022-08-27T06:21:40.432Z,6.05
2022-08-27T06:24:07.914Z,6.25
2022-08-27T06:26:34.903Z,5.47
2022-08-27T06:29:04.150Z,6.88
2022-08-27T06:31:31.068Z,5.85
2022-08-27T06:34:07.528Z,6.05
2022-08-27T06:39:03.806Z,6.57
2022-08-27T06:41:30.364Z,6.32
2022-08-27T06:43:58.391Z,6.43
2022-08-27T06:46:27.344Z,5.65
2022-08-27T06:48:56.295Z,5.35
2022-08-27T06:51:26.406Z,7.15
2022-08-27T06:53:55.666Z,6.35
2022-08-27T06:56:23.360Z,6.80
2022-08-27T06:58:57.686Z,5.68
2022-08-27T07:01:30.612Z,6.53
2022-08-27T07:03:59.775Z,6.25
2022-08-27T07:06:29.069Z,6.55
2022-08-27T07:08:59.791Z,6.22
2022-08-27T07:11:28.534Z,7.00
2022-08-27T07:13:56.237Z,6.30
2022-08-27T07:16:25.524Z,6.72
2022-08-27T07:18:55.455Z,6.53
2022-08-27T07:21:23.321Z,6.28
2022-08-27T07:23:52.718Z,6.78
2022-08-27T07:26:21.764Z,7.40
2022-08-27T07:28:50.069Z,6.57
2022-08-27T07:31:19.692Z,7.72
2022-08-27T07:33:52.580Z,8.73
2022-08-27T07:36:21.804Z,8.32
2022-08-27T07:39:00.710Z,8.10
2022-08-27T07:41:31.126Z,7.82
2022-08-27T07:44:19.726Z,7.93
2022-08-27T07:46:48.682Z,9.32
2022-08-27T07:49:19.900Z,6.93
2022-08-27T07:51:46.641Z,7.97
2022-08-27T07:54:13.667Z,6.68
2022-08-27T07:56:40.675Z,7.10
2022-08-27T07:59:08.181Z,8.30
2022-08-27T08:01:35.063Z,7.43
2022-08-27T08:04:01.869Z,6.43
2022-08-27T08:06:28.588Z,6.93
2022-08-27T08:11:21.583Z,6.78
2022-08-27T08:16:16.012Z,7.65
2022-08-27T08:18:42.544Z,7.47
2022-08-27T08:23:38.390Z,7.90
2022-08-27T08:26:06.589Z,8.38
2022-08-27T08:28:33.169Z,9.00
2022-08-27T08:31:00.271Z,9.88
2022-08-27T08:33:29.708Z,8.88
2022-08-27T08:36:03.011Z,13.05
2022-08-27T08:38:29.641Z,12.23
2022-08-27T08:40:56.297Z,12.60
2022-08-27T08:43:40.337Z,13.18
2022-08-27T08:46:14.283Z,11.00
2022-08-27T08:48:45.640Z,11.20
2022-08-27T08:51:26.709Z,14.10
2022-08-27T08:53:58.206Z,13.82
2022-08-27T08:56:33.707Z,16.60
2022-08-27T08:59:14.560Z,17.17
2022-08-27T09:01:42.515Z,18.92
2022-08-27T09:04:11.430Z,21.48
2022-08-27T09:06:59.071Z,19.33
2022-08-27T09:09:27.601Z,18.27
2022-08-27T09:11:59.991Z,18.15
2022-08-27T09:14:35.933Z,22.45
2022-08-27T09:17:10.885Z,18.02
2022-08-27T09:19:38.294Z,17.33
2022-08-27T09:22:24.803Z,18.13
2022-08-27T09:25:11.629Z,17.83
2022-08-27T09:27:41.674Z,19.73
2022-08-27T09:30:18.977Z,16.58
2022-08-27T09:32:45.502Z,21.33
2022-08-27T09:37:45.838Z,19.83
2022-08-27T09:40:23.756Z,18.58
2022-08-27T09:42:53.558Z,17.90
2022-08-27T09:45:29.922Z,18.00
2022-08-27T09:48:16.403Z,18.13
2022-08-27T09:50:49.383Z,18.00
2022-08-27T09:53:25.686Z,18.33
2022-08-27T09:55:59.289Z,18.23
2022-08-27T09:58:32.973Z,18.30
2022-08-27T10:00:59.560Z,16.58
2022-08-27T10:03:30.044Z,16.60
2022-08-27T10:06:00.449Z,15.55
2022-08-27T10:08:46.155Z,16.00
2022-08-27T10:11:23.649Z,16.20
2022-08-27T10:14:02.216Z,15.13
2022-08-27T10:16:41.313Z,14.38
2022-08-27T10:19:32.187Z,14.57
2022-08-27T10:22:07.799Z,13.52
2022-08-27T10:24:52.550Z,15.48
2022-08-27T10:27:37.493Z,14.63
2022-08-27T10:30:10.344Z,14.23
2022-08-27T10:33:10.536Z,13.18
2022-08-27T10:35:56.877Z,16.08
2022-08-27T10:38:33.937Z,13.40
2022-08-27T10:41:21.384Z,14.27
2022-08-27T10:44:25.099Z,14.95
2022-08-27T10:47:15.709Z,13.70
2022-08-27T10:50:08.757Z,12.88
2022-08-27T10:52:43.743Z,14.18
2022-08-27T10:55:13.078Z,14.15
2022-08-27T10:58:01.283Z,15.00
2022-08-27T11:00:47.915Z,13.40
2022-08-27T11:03:24.906Z,14.48
2022-08-27T15:05:00.210Z,7.30
2022-08-27T15:07:26.789Z,7.10
2022-08-27T15:09:55.961Z,7.07
2022-08-27T15:12:26.370Z,6.97
2022-08-27T15:14:53.731Z,7.43
2022-08-27T15:17:34.854Z,7.60
2022-08-27T15:20:08.012Z,7.50
2022-08-27T15:22:37.727Z,7.85
2022-08-27T15:25:08.272Z,7.07
2022-08-27T15:27:38.407Z,7.32
2022-08-27T15:30:11.433Z,7.43
2022-08-27T15:32:41.528Z,6.53
2022-08-27T15:35:13.944Z,6.90
2022-08-27T15:37:42.173Z,8.10
2022-08-27T15:40:10.334Z,6.82
2022-08-27T15:42:37.351Z,6.40
2022-08-27T15:45:05.053Z,5.97
2022-08-27T15:47:31.797Z,6.47
2022-08-27T15:49:58.408Z,5.60
2022-08-27T15:52:25.551Z,6.10
2022-08-27T15:55:13.069Z,6.10
2022-08-27T15:57:40.168Z,6.30
2022-08-27T16:00:07.489Z,6.07
2022-08-27T16:02:34.140Z,6.75
2022-08-27T16:05:00.832Z,6.38
2022-08-27T16:07:27.571Z,7.32
2022-08-27T16:09:54.642Z,6.95
2022-08-27T16:12:27.392Z,7.15
2022-08-27T16:14:55.864Z,7.78
2022-08-27T16:17:23.841Z,7.03
2022-08-27T16:19:50.584Z,7.63
2022-08-27T16:22:17.153Z,7.13
2022-08-27T16:24:44.447Z,7.35
2022-08-27T16:27:11.040Z,7.50
2022-08-27T16:29:37.844Z,7.35
2022-08-27T16:32:06.284Z,7.70
2022-08-27T16:34:35.038Z,7.47
2022-08-27T16:37:01.626Z,8.15
2022-08-27T16:39:33.100Z,8.38
2022-08-27T16:42:01.708Z,8.57
2022-08-27T16:44:28.361Z,7.72
2022-08-27T16:46:54.953Z,8.07
2022-08-27T16:49:39.843Z,8.73
2022-08-27T16:52:07.388Z,7.93
2022-08-27T16:54:35.500Z,8.73
2022-08-27T16:57:02.871Z,8.48
2022-08-27T16:59:29.435Z,8.48
2022-08-27T17:01:56.507Z,7.72
2022-08-27T17:04:29.642Z,8.05
2022-08-27T17:06:59.099Z,8.23
2022-08-27T17:09:25.992Z,7.70
2022-08-27T17:11:56.979Z,7.93
2022-08-27T17:14:24.342Z,7.13
2022-08-27T17:16:54.033Z,8.02
2022-08-27T17:19:22.772Z,8.50
2022-08-27T17:21:50.636Z,5.55
2022-08-27T17:24:17.709Z,5.55
2022-08-27T17:26:44.307Z,5.05
2022-08-27T17:29:11.000Z,5.30
2022-08-27T17:34:07.268Z,4.32
2022-08-27T17:36:34.059Z,3.80
2022-08-27T17:39:03.007Z,3.47
2022-08-27T17:41:34.475Z,3.67
2022-08-27T17:44:05.409Z,4.38
2022-08-27T17:46:32.382Z,4.10
2022-08-27T17:48:59.775Z,4.53
2022-08-27T17:51:27.922Z,6.18
2022-08-27T17:54:00.855Z,6.00
2022-08-27T17:56:28.328Z,6.13
2022-08-27T17:58:55.588Z,7.30
2022-08-27T18:01:28.111Z,6.40
2022-08-27T18:03:56.406Z,6.93
2022-08-27T18:06:23.889Z,6.57
2022-08-27T18:08:50.555Z,7.00
2022-08-27T18:11:17.571Z,5.80
2022-08-27T18:13:48.045Z,5.60
2022-08-27T18:16:14.629Z,5.70
2022-08-27T18:21:08.832Z,8.75
2022-08-27T18:23:37.346Z,4.93
2022-08-27T18:26:06.464Z,4.30
2022-08-27T18:28:34.139Z,4.18
2022-08-27T18:31:06.506Z,4.13
2022-08-27T18:33:33.733Z,4.07
2022-08-27T18:36:00.651Z,4.03
2022-08-27T18:38:27.427Z,3.72
2022-08-27T18:40:55.283Z,3.75
2022-08-27T18:43:35.066Z,3.53
2022-08-27T18:46:05.586Z,3.75
2022-08-27T18:48:33.328Z,3.22
2022-08-27T18:51:02.802Z,3.85
2022-08-27T18:53:33.220Z,3.25
2022-08-27T18:56:00.764Z,3.60
2022-08-27T18:58:28.389Z,3.40
2022-08-27T19:01:02.694Z,3.05
2022-08-27T19:03:34.544Z,3.38
2022-08-27T19:06:08.701Z,3.53
2022-08-27T19:08:36.334Z,2.83
2022-08-27T19:11:02.931Z,2.72
2022-08-27T19:16:00.468Z,3.75
2022-08-27T19:18:28.906Z,3.75
2022-08-27T19:20:56.162Z,3.47
2022-08-27T19:23:23.502Z,4.25
2022-08-27T19:25:51.009Z,4.90
2022-08-27T19:28:21.575Z,5.43
2022-08-27T19:30:48.358Z,6.05
2022-08-27T19:33:14.926Z,4.97
2022-08-27T19:35:42.695Z,5.47
2022-08-27T19:38:14.141Z,5.55
2022-08-27T19:40:41.362Z,6.05
2022-08-27T19:43:08.595Z,6.10
2022-08-27T19:45:35.813Z,5.82
2022-08-27T19:48:07.631Z,5.60
2022-08-27T19:50:34.234Z,6.78
2022-08-27T19:55:27.216Z,4.93
2022-08-27T20:00:24.820Z,5.97
2022-08-27T20:02:55.276Z,5.38
2022-08-27T20:05:22.810Z,6.07
2022-08-27T20:07:52.386Z,5.47
2022-08-27T20:10:22.647Z,6.03
2022-08-27T20:12:52.597Z,5.95
2022-08-27T20:15:21.008Z,5.68
2022-08-27T20:17:51.550Z,6.15
2022-08-27T20:20:22.639Z,5.75
2022-08-27T20:22:49.610Z,6.10
2022-08-27T20:25:16.283Z,5.80
2022-08-27T20:27:43.065Z,6.03
2022-08-27T20:30:12.540Z,6.20
2022-08-27T20:32:39.344Z,6.45
2022-08-27T20:35:07.588Z,5.15
2022-08-27T20:37:40.098Z,6.05
2022-08-27T20:40:12.885Z,6.22
2022-08-27T20:42:39.562Z,5.55
2022-08-27T20:47:39.621Z,5.93
2022-08-27T20:50:06.935Z,6.85
2022-08-27T20:52:34.282Z,6.90
2022-08-27T20:55:01.016Z,6.72
2022-08-27T20:57:27.530Z,8.20
2022-08-27T21:00:12.804Z,8.27
2022-08-27T21:02:40.802Z,6.50
2022-08-27T21:05:11.022Z,7.22
2022-08-27T21:07:37.602Z,7.40
2022-08-27T21:12:32.250Z,8.80
2022-08-27T21:14:59.476Z,9.30
2022-08-27T21:17:27.956Z,8.48
2022-08-27T21:19:55.351Z,9.10
2022-08-27T21:22:22.814Z,8.07
2022-08-27T21:24:49.787Z,7.57
2022-08-27T21:27:18.060Z,9.10
2022-08-27T21:29:45.083Z,8.52
2022-08-27T21:32:12.535Z,10.38
2022-08-27T21:34:39.398Z,8.95
2022-08-27T21:37:06.000Z,9.52
2022-08-27T21:42:02.098Z,9.50
2022-08-27T21:44:30.382Z,9.98
2022-08-27T21:46:57.735Z,10.18
2022-08-27T21:49:24.367Z,9.90
2022-08-27T21:54:17.485Z,9.63
2022-08-27T21:56:45.224Z,10.00
2022-08-27T21:59:11.784Z,11.00
2022-08-27T22:03:01.770Z,10.52
2022-08-27T22:05:28.464Z,9.80
2022-08-27T22:07:55.062Z,10.75
2022-08-27T22:12:48.243Z,11.95
2022-08-27T22:17:41.271Z,11.40
2022-08-27T22:22:35.188Z,12.35
2022-08-27T22:25:01.732Z,12.95
2022-08-27T22:29:54.810Z,12.80
2022-08-27T22:34:47.759Z,13.90
2022-08-27T22:37:14.300Z,13.90
2022-08-27T22:42:07.435Z,13.15
2022-08-27T22:44:34.201Z,13.80
2022-08-27T22:47:00.756Z,12.55
2022-08-27T22:51:53.823Z,13.93
2022-08-27T22:54:20.571Z,14.13
2022-08-27T22:56:47.149Z,13.88
2022-08-27T23:01:41.111Z,13.18
2022-08-27T23:04:07.942Z,13.68
2022-08-27T23:06:34.813Z,15.10
2022-08-27T23:09:01.999Z,15.13
2022-08-27T23:11:31.585Z,15.85
2022-08-27T23:13:59.503Z,15.10
2022-08-27T23:16:27.124Z,14.57
2022-08-27T23:18:54.065Z,13.40
2022-08-27T23:21:21.178Z,14.98
2022-08-27T23:23:47.983Z,12.73
2022-08-27T23:26:33.416Z,14.90
2022-08-27T23:29:00.167Z,14.23
2022-08-27T23:31:26.826Z,16.42
2022-08-27T23:36:21.057Z,15.32
2022-08-27T23:38:47.684Z,15.10
2022-08-27T23:44:08.049Z,15.65
2022-08-27T23:46:34.597Z,15.75
2022-08-27T23:51:27.805Z,14.75
2022-08-27T23:53:54.407Z,14.38
2022-08-27T23:58:55.283Z,13.70
